Ryuoh Maru No.2 — JM5900 — position and weather

sailwx.info

Track history (hours):
 
Tides and Currents Weather Stations Pressure Air Temp Water Temp Dewpoint Dewpoint Depression Visibility Wind Speed Wind Dir Waves Ship Positions

Ryuoh Maru No.2

Last reported at 2015-Mar-23 20:31 UTC. Time now 2015-Mar-27 05:17 UTC.
Position N 35°39' E 140°54'.

Length 80 m; draft 4.5 m.

Type: Tanker. MMSI: 431401218.

Date/timePositionNaut miles runAvg speedWind from/ knotsBaromVisibWave heightAir tempDewpointWater temp
2015-Mar-23 20:31N 35°39' E 140°54'9 9.3
2015-Mar-23 19:33N 35°32' E 140°47'1010.0
2015-Mar-23 18:33N 35°24' E 140°40'10 9.5
2015-Mar-23 17:28N 35°16' E 140°33'12 9.9
2015-Mar-23 16:15N 35°06' E 140°24'810.8
2015-Mar-23 15:31N 35°02' E 140°15'1110.7
2015-Mar-23 14:31N 34°57' E 140°04'13 9.8
2015-Mar-23 13:13N 34°52' E 139°50'710.2
2015-Mar-23 12:33N 34°56' E 139°44'1010.3
2015-Mar-23 11:33N 35°06' E 139°45'1010.2
2015-Mar-23 10:33N 35°17' E 139°45'9 8.7
2015-Mar-23 09:33N 35°25' E 139°45'6 5.8
2015-Mar-23 08:33N 35°22' E 139°51'0 0.0
2015-Mar-23 07:11N 35°22' E 139°51'0 0.0
2015-Mar-23 06:33N 35°22' E 139°51'0 0.0
2015-Mar-23 05:33N 35°22' E 139°51'2 1.6
2015-Mar-23 04:33N 35°22' E 139°49'3 3.3
2015-Mar-23 03:33N 35°23' E 139°45'0 0.0
2015-Mar-23 02:31N 35°23' E 139°45'0 0.0
2015-Mar-23 01:33N 35°23' E 139°45'0 0.0
2015-Mar-23 00:33N 35°23' E 139°45'0 0.0
2015-Mar-22 23:33N 35°23' E 139°45'0 0.0
2015-Mar-22 22:33N 35°23' E 139°45'0 0.0
2015-Mar-22 21:33N 35°23' E 139°45'0 0.0
2015-Mar-22 20:33N 35°23' E 139°45'0 0.0
2015-Mar-22 19:33N 35°23' E 139°45'0 0.0
2015-Mar-22 18:33N 35°23' E 139°45'0 0.0
2015-Mar-22 17:33N 35°23' E 139°45'0 0.0
2015-Mar-22 16:33N 35°23' E 139°45'0 0.1
2015-Mar-22 15:33N 35°23' E 139°45'0 0.0
2015-Mar-22 14:33N 35°23' E 139°45'0 0.0
2015-Mar-22 13:33N 35°23' E 139°45'0 0.0
2015-Mar-22 12:33N 35°23' E 139°45'0 0.0
2015-Mar-22 11:33N 35°23' E 139°45'0 0.0
2015-Mar-22 10:33N 35°23' E 139°45'0 0.1
2015-Mar-22 09:33N 35°23' E 139°45'0 0.0
2015-Mar-22 08:33N 35°23' E 139°45'0 0.0
2015-Mar-22 07:33N 35°23' E 139°45'0 0.0
2015-Mar-22 06:33N 35°23' E 139°45'0 0.0
2015-Mar-22 05:33N 35°23' E 139°45'0 0.0
2015-Mar-22 04:33N 35°23' E 139°45'0 0.0
2015-Mar-22 03:33N 35°23' E 139°45'0 0.1
2015-Mar-22 02:33N 35°23' E 139°45'0 0.0
2015-Mar-22 01:33N 35°23' E 139°45'0 0.0
2015-Mar-22 00:33N 35°23' E 139°45'0 0.0
2015-Mar-21 23:33N 35°23' E 139°45'0 0.1
2015-Mar-21 22:33N 35°23' E 139°45'8 8.0
2015-Mar-21 21:33N 35°15' E 139°47'1111.0
2015-Mar-21 20:33N 35°04' E 139°45'12 9.7
2015-Mar-21 19:21N 34°53' E 139°49'  
Track history (hours):
 
Tides and Currents Weather Stations Pressure Air Temp Water Temp Dewpoint Dewpoint Depression Visibility Wind Speed Wind Dir Waves Ship Positions

Ryuoh Maru No.2

Last reported at 2015-Mar-23 20:31 UTC. Time now 2015-Mar-27 05:17 UTC.
Position N 35°39' E 140°54'.

Length 80 m; draft 4.5 m.

Type: Tanker. MMSI: 431401218.

Date/timePositionNaut miles runAvg speedWind from/ knotsBaromVisibWave heightAir tempDewpointWater temp
2015-Mar-23 20:31N 35°39' E 140°54'9 9.3
2015-Mar-23 19:33N 35°32' E 140°47'1010.0
2015-Mar-23 18:33N 35°24' E 140°40'10 9.5
2015-Mar-23 17:28N 35°16' E 140°33'12 9.9
2015-Mar-23 16:15N 35°06' E 140°24'810.8
2015-Mar-23 15:31N 35°02' E 140°15'1110.7
2015-Mar-23 14:31N 34°57' E 140°04'13 9.8
2015-Mar-23 13:13N 34°52' E 139°50'710.2
2015-Mar-23 12:33N 34°56' E 139°44'1010.3
2015-Mar-23 11:33N 35°06' E 139°45'1010.2
2015-Mar-23 10:33N 35°17' E 139°45'9 8.7
2015-Mar-23 09:33N 35°25' E 139°45'6 5.8
2015-Mar-23 08:33N 35°22' E 139°51'0 0.0
2015-Mar-23 07:11N 35°22' E 139°51'0 0.0
2015-Mar-23 06:33N 35°22' E 139°51'0 0.0
2015-Mar-23 05:33N 35°22' E 139°51'2 1.6
2015-Mar-23 04:33N 35°22' E 139°49'3 3.3
2015-Mar-23 03:33N 35°23' E 139°45'0 0.0
2015-Mar-23 02:31N 35°23' E 139°45'0 0.0
2015-Mar-23 01:33N 35°23' E 139°45'0 0.0
2015-Mar-23 00:33N 35°23' E 139°45'0 0.0
2015-Mar-22 23:33N 35°23' E 139°45'0 0.0
2015-Mar-22 22:33N 35°23' E 139°45'0 0.0
2015-Mar-22 21:33N 35°23' E 139°45'0 0.0
2015-Mar-22 20:33N 35°23' E 139°45'0 0.0
2015-Mar-22 19:33N 35°23' E 139°45'0 0.0
2015-Mar-22 18:33N 35°23' E 139°45'0 0.0
2015-Mar-22 17:33N 35°23' E 139°45'0 0.0
2015-Mar-22 16:33N 35°23' E 139°45'0 0.1
2015-Mar-22 15:33N 35°23' E 139°45'0 0.0
2015-Mar-22 14:33N 35°23' E 139°45'0 0.0
2015-Mar-22 13:33N 35°23' E 139°45'0 0.0
2015-Mar-22 12:33N 35°23' E 139°45'0 0.0
2015-Mar-22 11:33N 35°23' E 139°45'0 0.0
2015-Mar-22 10:33N 35°23' E 139°45'0 0.1
2015-Mar-22 09:33N 35°23' E 139°45'0 0.0
2015-Mar-22 08:33N 35°23' E 139°45'0 0.0
2015-Mar-22 07:33N 35°23' E 139°45'0 0.0
2015-Mar-22 06:33N 35°23' E 139°45'0 0.0
2015-Mar-22 05:33N 35°23' E 139°45'0 0.0
2015-Mar-22 04:33N 35°23' E 139°45'0 0.0
2015-Mar-22 03:33N 35°23' E 139°45'0 0.1
2015-Mar-22 02:33N 35°23' E 139°45'0 0.0
2015-Mar-22 01:33N 35°23' E 139°45'0 0.0
2015-Mar-22 00:33N 35°23' E 139°45'0 0.0
2015-Mar-21 23:33N 35°23' E 139°45'0 0.1
2015-Mar-21 22:33N 35°23' E 139°45'8 8.0
2015-Mar-21 21:33N 35°15' E 139°47'1111.0
2015-Mar-21 20:33N 35°04' E 139°45'12 9.7
2015-Mar-21 19:21N 34°53' E 139°49'  

Dump ship's entire track history